Wetter

Link zur aktuellen Windanzeige


Nordholz:

METAR:

2020/07/16 13:20 ETMN 161320Z 36005KT 9999 FEW030 SCT061 18/10 Q1016 BLU+BLU+

TAF:

2020/07/16 14:30 TAF ETMN 161324Z 1614/1623 36007KT 9999 NSW FEW030 SCT060

Wind EDXN:

16.07. 12:20z 310/07G11kt 270V010
16.07. 12:30z 340/05G13kt
16.07. 12:40z 330/09G13kt
16.07. 12:50z 320/03G12kt 290V360
16.07. 13:00z 350/06G13kt
16.07. 13:10z 020/05G11kt
16.07. 13:20z 360/07G11kt
16.07. 13:30z 020/05G11kt 330V050
16.07. 13:40z 030/06G12kt
16.07. 13:50z 010/07G12kt

Bremen:

METAR:

2020/07/16 13:20 EDDW 161320Z 09003KT 050V110 9999 FEW032 19/10 Q1016 NOSIG

TAF:

2020/07/16 12:27 TAF EDDW 161100Z 1612/1712 VRB03KT 9999 SCT035 BECMG 1612/1614 34006KT BECMG 1619/1621 VRB02KT TEMPO 1622/1705 2000 BCFG PROB30 TEMPO 1623/1705 0600 FG

Hamburg:

METAR:

2020/07/16 13:20 EDDH 161320Z 05005KT 360V090 9999 FEW040 20/10 Q1016 NOSIG

TAF:

2020/07/16 12:27 TAF EDDH 161100Z 1612/1718 32004KT 9999 FEW040 PROB30 TEMPO 1701/1704 2500 BCFG

Hannover:

METAR:

2020/07/16 13:20 EDDV 161320Z 33004KT 300V030 9999 FEW036 SCT048 19/11 Q1016 NOSIG

TAF:

2020/07/16 12:27 TAF EDDV 161100Z 1612/1712 VRB03KT 9999 SCT025 TEMPO 1700/1705 2000 BCFG PROB30 TEMPO 1701/1705 0600 FG

Wikipedia Artikel: METARTAF

Daten von Aviation Weather Center der NOAA, es kann keine Garantie für Aktualität und Richtigkeit der Daten übernommen werden.

Die Nutzung dieser Daten zur Flugplanung ist nicht zulässig!

Inoffizielle ATIS 🙂